Time;durP1;ratioP1;P1;durP2;ratioP2;P2;SDS_P1;SDS_P2;PMS_P1;PMS_P2;Temp;Humidity;BMP_temperature;BMP_pressure;BME280_temperature;BME280_humidity;BME280_pressure;Samples;Min_cycle;Max_cycle;Signal;HPM_P1;HPM_P2
2021/12/09 00:01:50;;;;;;;2.10;1.08;;;9.10;99.90;;;;;;6092370;23;20081;-81
2021/12/09 00:04:25;;;;;;;3.50;1.30;;;9.20;99.90;;;;;;6092591;23;20093;-81
2021/12/09 00:06:51;;;;;;;2.00;0.85;;;9.20;99.90;;;;;;6092595;23;20438;-79
2021/12/09 00:09:19;;;;;;;3.22;1.17;;;9.20;99.90;;;;;;6091702;23;20423;-79
2021/12/09 00:11:47;;;;;;;2.10;1.13;;;9.30;99.90;;;;;;6092408;23;19998;-78
2021/12/09 00:14:16;;;;;;;1.58;0.90;;;9.20;99.90;;;;;;6066260;23;20021;-79
2021/12/09 00:16:43;;;;;;;2.33;1.05;;;9.30;99.90;;;;;;6092296;23;20620;-79
2021/12/09 00:19:08;;;;;;;3.78;2.80;;;9.30;99.90;;;;;;6092113;23;20002;-78
2021/12/09 00:21:34;;;;;;;3.40;2.00;;;9.30;99.90;;;;;;6066183;23;20017;-78
2021/12/09 00:24:00;;;;;;;1.92;1.42;;;9.30;99.90;;;;;;6090903;23;20457;-78
2021/12/09 00:26:26;;;;;;;6.55;1.40;;;9.30;99.90;;;;;;6091589;23;20434;-78
2021/12/09 00:28:52;;;;;;;4.90;1.83;;;9.30;99.90;;;;;;6092069;23;20013;-77
2021/12/09 00:31:18;;;;;;;3.97;1.60;;;9.30;99.90;;;;;;6091963;23;20003;-77
2021/12/09 00:33:46;;;;;;;4.18;1.13;;;9.30;99.90;;;;;;6091932;23;20013;-77
2021/12/09 00:36:15;;;;;;;3.42;1.30;;;9.40;99.90;;;;;;6091551;23;20002;-77
2021/12/09 00:38:41;;;;;;;4.75;1.30;;;9.30;99.90;;;;;;6092090;23;20014;-77
2021/12/09 00:41:14;;;;;;;4.85;1.20;;;9.40;99.90;;;;;;6091723;23;20002;-77
2021/12/09 00:43:41;;;;;;;2.90;1.42;;;9.30;99.90;;;;;;6090989;23;20026;-77
2021/12/09 00:46:08;;;;;;;1.88;1.13;;;9.30;99.90;;;;;;6091840;23;20009;-77
2021/12/09 00:48:34;;;;;;;1.92;1.05;;;9.30;99.90;;;;;;6091594;23;20009;-77
2021/12/09 00:51:01;;;;;;;2.25;1.15;;;9.20;99.90;;;;;;6091693;23;20390;-77
2021/12/09 00:53:27;;;;;;;2.38;1.30;;;9.20;99.90;;;;;;6067004;23;20010;-77
2021/12/09 00:55:53;;;;;;;2.28;1.10;;;9.20;99.90;;;;;;6092599;23;20010;-77
2021/12/09 00:58:20;;;;;;;1.35;1.10;;;9.20;99.90;;;;;;6067498;23;20014;-77
2021/12/09 01:00:46;;;;;;;1.60;1.00;;;9.10;99.90;;;;;;6093245;23;20398;-78
2021/12/09 01:03:12;;;;;;;2.60;1.15;;;9.20;99.90;;;;;;6092892;23;20117;-78
2021/12/09 01:05:38;;;;;;;2.35;1.25;;;9.20;99.90;;;;;;6092848;23;20104;-77
2021/12/09 01:08:04;;;;;;;1.75;0.98;;;9.10;99.90;;;;;;6092905;23;20010;-78
2021/12/09 01:10:30;;;;;;;1.10;0.95;;;9.20;99.90;;;;;;6092913;23;20435;-78
2021/12/09 01:12:56;;;;;;;3.22;0.95;;;9.20;99.90;;;;;;6067399;23;20011;-78
2021/12/09 01:15:23;;;;;;;3.45;1.00;;;9.10;99.90;;;;;;6092890;23;20065;-77
2021/12/09 01:17:49;;;;;;;2.97;1.13;;;9.10;99.90;;;;;;6067527;23;20014;-77
2021/12/09 01:20:18;;;;;;;3.28;1.30;;;9.10;99.90;;;;;;6092661;23;20081;-77
2021/12/09 01:22:45;;;;;;;4.50;1.35;;;9.20;99.90;;;;;;6092954;23;20009;-77
2021/12/09 01:25:16;;;;;;;1.75;1.08;;;9.20;99.90;;;;;;6093283;23;20021;-77
2021/12/09 01:27:44;;;;;;;2.50;1.35;;;9.20;99.90;;;;;;6067536;23;20007;-77
2021/12/09 01:30:16;;;;;;;1.42;1.02;;;9.30;99.90;;;;;;6066681;23;20007;-77
2021/12/09 01:32:48;;;;;;;3.75;1.63;;;9.30;99.90;;;;;;6092887;23;20029;-78
2021/12/09 01:35:14;;;;;;;4.50;1.50;;;9.20;99.90;;;;;;6092604;23;20010;-77
2021/12/09 01:37:40;;;;;;;2.78;1.52;;;9.30;99.90;;;;;;6067539;23;20474;-78
2021/12/09 01:40:08;;;;;;;2.88;2.10;;;9.30;99.90;;;;;;6092732;23;20502;-77
2021/12/09 01:42:35;;;;;;;4.68;1.77;;;9.20;99.90;;;;;;6092311;23;20028;-77
2021/12/09 01:45:01;;;;;;;4.70;2.20;;;9.20;99.90;;;;;;6091433;23;20006;-77
2021/12/09 01:47:27;;;;;;;2.40;1.60;;;9.20;99.90;;;;;;6067391;23;20006;-77
2021/12/09 01:49:52;;;;;;;2.70;1.63;;;9.20;99.90;;;;;;6069909;23;20470;-77
2021/12/09 01:52:18;;;;;;;2.00;1.35;;;9.30;99.90;;;;;;6095231;23;20054;-77
2021/12/09 01:54:44;;;;;;;2.17;1.10;;;9.20;99.90;;;;;;6095848;23;20378;-77
2021/12/09 01:57:10;;;;;;;4.57;1.17;;;9.20;99.90;;;;;;6095979;23;20013;-78
2021/12/09 01:59:35;;;;;;;2.47;1.33;;;9.20;99.90;;;;;;6095686;23;20601;-77
2021/12/09 02:02:01;;;;;;;1.98;1.20;;;9.20;99.90;;;;;;6070339;23;20014;-77
2021/12/09 02:04:27;;;;;;;2.40;1.27;;;9.20;99.90;;;;;;6095783;23;20069;-77
2021/12/09 02:06:53;;;;;;;1.27;1.10;;;9.20;99.90;;;;;;6095191;23;20002;-78
2021/12/09 02:09:19;;;;;;;5.13;1.17;;;9.20;99.90;;;;;;6095725;23;20017;-77
2021/12/09 02:11:46;;;;;;;4.00;1.25;;;9.10;99.90;;;;;;6095888;23;20003;-77
2021/12/09 02:14:12;;;;;;;2.33;0.90;;;9.10;99.90;;;;;;6095778;23;20007;-77
2021/12/09 02:16:38;;;;;;;1.77;1.40;;;9.10;99.90;;;;;;6096184;23;19998;-77
2021/12/09 02:19:05;;;;;;;1.60;0.90;;;9.10;99.90;;;;;;6095752;23;20422;-78
2021/12/09 02:21:33;;;;;;;1.10;0.80;;;9.10;99.90;;;;;;6095806;23;20011;-78
2021/12/09 02:24:08;;;;;;;1.88;0.65;;;9.00;99.90;;;;;;6095554;23;20014;-77
2021/12/09 02:26:41;;;;;;;3.22;1.00;;;9.00;99.90;;;;;;6096037;23;20069;-78
2021/12/09 02:29:11;;;;;;;1.20;1.00;;;9.00;99.90;;;;;;6095327;23;20006;-77
2021/12/09 02:31:38;;;;;;;0.95;0.80;;;8.90;99.90;;;;;;6095695;23;20002;-78
2021/12/09 02:34:05;;;;;;;0.88;0.60;;;8.90;99.90;;;;;;6095543;23;20033;-78
2021/12/09 02:36:36;;;;;;;1.08;0.82;;;8.90;99.90;;;;;;6095772;23;20009;-77
2021/12/09 02:39:09;;;;;;;1.38;1.00;;;8.80;99.90;;;;;;6096054;23;19999;-78
2021/12/09 02:41:36;;;;;;;0.73;0.70;;;8.70;99.90;;;;;;6095734;23;20007;-77
2021/12/09 02:44:05;;;;;;;1.20;1.10;;;8.60;99.90;;;;;;6095323;23;20476;-78
2021/12/09 02:46:37;;;;;;;1.30;1.00;;;8.40;99.90;;;;;;6070633;23;20115;-78
2021/12/09 02:49:06;;;;;;;1.10;1.10;;;8.40;99.90;;;;;;6095748;23;20002;-77
2021/12/09 02:51:32;;;;;;;1.48;1.17;;;8.30;99.90;;;;;;6095688;23;19998;-77
2021/12/09 02:53:57;;;;;;;3.00;1.38;;;8.20;99.90;;;;;;6095379;23;20733;-77
2021/12/09 02:56:23;;;;;;;1.52;1.25;;;8.10;99.90;;;;;;6095600;23;20030;-77
2021/12/09 02:58:49;;;;;;;2.30;1.92;;;8.00;99.90;;;;;;6095198;23;20025;-77
2021/12/09 03:01:22;;;;;;;1.40;1.30;;;8.00;99.90;;;;;;6095231;23;20009;-77
2021/12/09 03:03:55;;;;;;;1.98;1.70;;;7.80;99.90;;;;;;6069654;23;20019;-77
2021/12/09 03:06:27;;;;;;;2.38;2.05;;;7.70;99.90;;;;;;6069727;23;20010;-75
2021/12/09 03:08:53;;;;;;;4.25;2.35;;;7.60;99.90;;;;;;6095122;23;20006;-77
2021/12/09 03:11:21;;;;;;;2.13;2.00;;;7.50;99.90;;;;;;6095186;23;20029;-76
2021/12/09 03:13:48;;;;;;;2.45;2.25;;;7.50;99.90;;;;;;6095226;23;20010;-77
2021/12/09 03:16:14;;;;;;;2.30;2.10;;;7.40;99.90;;;;;;6095281;23;20002;-77
2021/12/09 03:18:43;;;;;;;2.63;2.40;;;7.30;99.90;;;;;;6069724;23;20006;-77
2021/12/09 03:21:39;;;;;;;2.78;2.17;;;7.30;99.90;;;;;;6069619;23;20029;-77
2021/12/09 03:24:12;;;;;;;3.45;2.40;;;7.10;99.90;;;;;;6065506;23;20019;-77
2021/12/09 03:26:42;;;;;;;2.35;2.05;;;7.10;99.90;;;;;;6069723;23;20497;-77
2021/12/09 03:29:10;;;;;;;3.17;2.30;;;6.90;99.90;;;;;;6094780;23;20006;-76
2021/12/09 03:31:38;;;;;;;2.40;2.05;;;6.90;99.90;;;;;;6095039;23;20009;-75
2021/12/09 03:34:07;;;;;;;3.13;2.30;;;6.90;99.90;;;;;;6095137;23;20002;-75
2021/12/09 03:36:33;;;;;;;2.60;2.40;;;6.80;99.90;;;;;;6094997;23;20077;-75
2021/12/09 03:39:01;;;;;;;2.40;2.20;;;6.80;99.90;;;;;;6094668;23;20038;-77
2021/12/09 03:41:27;;;;;;;2.75;2.30;;;6.80;99.90;;;;;;6094466;23;20034;-77
2021/12/09 03:43:53;;;;;;;2.40;2.20;;;6.80;99.90;;;;;;6049577;23;20035;-77
2021/12/09 03:46:19;;;;;;;2.13;1.90;;;6.70;99.90;;;;;;6040669;23;20509;-77
2021/12/09 03:48:45;;;;;;;2.28;2.08;;;6.70;99.90;;;;;;6038308;23;20068;-77
2021/12/09 03:51:11;;;;;;;2.60;2.30;;;6.50;99.90;;;;;;6062230;23;20003;-77
2021/12/09 03:53:37;;;;;;;3.30;2.63;;;6.50;99.90;;;;;;6065313;23;20011;-77
2021/12/09 03:56:03;;;;;;;2.50;2.30;;;6.40;99.90;;;;;;6065707;23;20029;-77
2021/12/09 03:58:29;;;;;;;2.60;2.38;;;6.30;99.90;;;;;;6040398;23;20498;-77
2021/12/09 04:00:55;;;;;;;2.90;2.55;;;6.20;99.90;;;;;;6040663;23;19999;-77
2021/12/09 04:03:21;;;;;;;3.10;2.53;;;6.20;99.90;;;;;;6065897;23;20058;-76
2021/12/09 04:05:48;;;;;;;3.65;2.72;;;6.10;99.90;;;;;;6065836;23;20065;-77
2021/12/09 04:08:14;;;;;;;2.70;2.50;;;6.00;99.90;;;;;;6065678;23;20010;-76
2021/12/09 04:10:40;;;;;;;3.08;2.78;;;5.90;99.90;;;;;;6065772;23;20332;-77
2021/12/09 04:13:06;;;;;;;4.35;2.70;;;5.90;99.90;;;;;;6040392;23;20007;-77
2021/12/09 04:15:32;;;;;;;4.75;2.75;;;5.90;99.90;;;;;;6065615;23;20383;-77
2021/12/09 04:17:58;;;;;;;3.38;2.60;;;5.90;99.90;;;;;;6065638;23;20490;-76
2021/12/09 04:20:24;;;;;;;3.10;2.80;;;5.80;99.90;;;;;;6065903;23;19998;-77
2021/12/09 04:22:50;;;;;;;3.08;2.78;;;5.80;99.90;;;;;;6065543;23;20337;-77
2021/12/09 04:25:17;;;;;;;4.35;2.90;;;5.80;99.90;;;;;;6065680;23;20443;-77
2021/12/09 04:27:43;;;;;;;4.03;3.08;;;5.80;99.90;;;;;;6065724;23;19999;-76
2021/12/09 04:30:09;;;;;;;3.50;2.75;;;5.80;99.90;;;;;;6065243;23;20007;-77
2021/12/09 04:32:35;;;;;;;5.65;2.80;;;5.80;99.90;;;;;;6040168;23;20010;-77
2021/12/09 04:35:01;;;;;;;4.80;3.10;;;5.70;99.90;;;;;;6040189;23;20003;-77
2021/12/09 04:37:26;;;;;;;3.10;2.83;;;5.60;99.90;;;;;;6040137;23;20014;-76
2021/12/09 04:39:52;;;;;;;3.28;2.90;;;5.60;99.90;;;;;;6065482;23;20003;-77
2021/12/09 04:42:18;;;;;;;4.13;3.25;;;5.60;99.90;;;;;;6065819;23;20007;-75
2021/12/09 04:44:44;;;;;;;3.47;3.05;;;5.60;99.90;;;;;;6093983;23;20093;-77
2021/12/09 04:47:10;;;;;;;3.30;3.00;;;5.60;99.90;;;;;;6094371;23;20005;-77
2021/12/09 04:49:36;;;;;;;3.85;3.03;;;5.60;99.90;;;;;;6094304;23;20010;-76
2021/12/09 04:52:03;;;;;;;3.83;3.38;;;5.60;99.90;;;;;;6094384;23;19998;-77
2021/12/09 04:54:29;;;;;;;4.88;3.47;;;5.60;99.90;;;;;;6094094;23;20338;-77
2021/12/09 04:56:55;;;;;;;3.20;2.90;;;5.60;99.90;;;;;;6094318;23;20006;-77
2021/12/09 04:59:21;;;;;;;4.57;3.20;;;5.60;99.90;;;;;;6093810;23;20010;-77
2021/12/09 05:01:50;;;;;;;4.85;3.22;;;5.60;99.90;;;;;;6068648;23;20334;-76
2021/12/09 05:04:17;;;;;;;3.53;3.22;;;5.60;99.90;;;;;;6094300;23;20093;-77
2021/12/09 05:06:43;;;;;;;3.92;3.45;;;5.60;99.90;;;;;;6094509;23;20060;-77
2021/12/09 05:09:15;;;;;;;4.82;3.22;;;5.60;99.90;;;;;;6094196;23;20006;-77
2021/12/09 05:14:07;;;;;;;3.88;3.50;;;5.50;99.90;;;;;;6095639;23;20094;-77
2021/12/09 05:16:33;;;;;;;3.60;3.30;;;5.60;99.90;;;;;;6094312;23;20085;-77
2021/12/09 05:18:59;;;;;;;4.25;3.70;;;5.50;99.90;;;;;;6094244;23;20386;-77
2021/12/09 05:21:33;;;;;;;4.05;3.65;;;5.50;99.90;;;;;;6093906;23;20007;-78
2021/12/09 05:23:59;;;;;;;3.65;3.33;;;5.60;99.90;;;;;;6094426;23;20481;-77
2021/12/09 05:26:30;;;;;;;4.38;3.65;;;5.60;99.90;;;;;;6094276;23;20003;-78
2021/12/09 05:28:57;;;;;;;3.50;3.20;;;5.60;99.90;;;;;;6093796;23;20094;-77
2021/12/09 05:34:09;;;;;;;3.85;3.47;;;5.60;99.90;;;;;;6093998;23;20058;-77
2021/12/09 05:36:36;;;;;;;4.63;3.80;;;5.50;99.90;;;;;;6068422;23;20316;-77
2021/12/09 05:39:02;;;;;;;4.03;3.60;;;5.50;99.90;;;;;;6094200;23;20009;-77
2021/12/09 05:41:28;;;;;;;5.07;3.60;;;5.40;99.90;;;;;;6069475;23;20007;-78
2021/12/09 05:43:54;;;;;;;4.97;3.70;;;5.40;99.90;;;;;;6069773;23;20476;-77
2021/12/09 05:46:22;;;;;;;4.35;3.50;;;5.40;99.90;;;;;;6095600;23;20002;-77
2021/12/09 05:48:50;;;;;;;4.03;3.63;;;5.30;99.90;;;;;;6096306;23;20009;-77
2021/12/09 05:51:16;;;;;;;3.90;3.38;;;5.30;99.90;;;;;;6095701;23;20001;-77
2021/12/09 05:53:42;;;;;;;4.32;3.45;;;5.30;99.90;;;;;;6096116;23;20391;-78
2021/12/09 05:56:07;;;;;;;4.00;3.53;;;5.40;99.90;;;;;;6070544;23;20007;-78
2021/12/09 05:58:33;;;;;;;5.55;4.50;;;5.30;99.90;;;;;;6095934;23;20013;-77
2021/12/09 06:00:59;;;;;;;4.68;4.22;;;5.30;99.90;;;;;;6094737;23;20146;-77
2021/12/09 06:03:25;;;;;;;4.25;3.55;;;5.30;99.90;;;;;;6069703;23;20021;-77
2021/12/09 06:05:51;;;;;;;4.07;3.42;;;5.30;99.90;;;;;;6093490;23;20030;-77
2021/12/09 06:08:19;;;;;;;5.13;3.92;;;5.30;99.90;;;;;;6069375;23;20001;-77
2021/12/09 06:10:45;;;;;;;4.70;3.75;;;5.30;99.90;;;;;;6095609;23;20012;-77
2021/12/09 06:13:11;;;;;;;4.13;3.75;;;5.30;99.90;;;;;;6095985;23;20003;-77
2021/12/09 06:15:37;;;;;;;4.20;3.10;;;5.20;99.90;;;;;;6068275;23;20037;-77
2021/12/09 06:18:03;;;;;;;3.92;3.40;;;5.20;99.90;;;;;;6093840;23;20129;-77
2021/12/09 06:20:29;;;;;;;4.13;3.70;;;5.20;99.90;;;;;;6093806;23;19998;-77
2021/12/09 06:22:55;;;;;;;4.20;3.55;;;5.20;99.90;;;;;;6093577;23;20017;-76
2021/12/09 06:25:21;;;;;;;3.83;3.50;;;5.10;99.90;;;;;;6093475;23;20124;-77
2021/12/09 06:27:48;;;;;;;4.68;3.47;;;5.20;99.90;;;;;;6068298;23;20006;-77
2021/12/09 06:30:15;;;;;;;4.10;3.30;;;5.20;99.90;;;;;;6068841;23;20013;-77
2021/12/09 06:32:42;;;;;;;4.20;3.80;;;5.20;99.90;;;;;;6095695;23;20081;-77
2021/12/09 06:35:09;;;;;;;8.55;3.72;;;5.20;99.90;;;;;;6070277;23;20010;-78
2021/12/09 06:37:40;;;;;;;4.10;3.65;;;5.20;99.90;;;;;;6095542;23;20426;-77
2021/12/09 06:40:07;;;;;;;4.63;3.90;;;5.20;99.90;;;;;;6095615;23;20452;-76
2021/12/09 06:42:33;;;;;;;5.05;3.97;;;5.20;99.90;;;;;;6095440;23;20013;-76
2021/12/09 06:44:59;;;;;;;5.57;3.30;;;5.20;99.90;;;;;;6095520;23;20409;-78
2021/12/09 06:47:25;;;;;;;4.43;4.03;;;5.20;99.90;;;;;;6095488;23;20081;-76
2021/12/09 06:49:50;;;;;;;4.30;3.80;;;5.20;99.90;;;;;;6094358;23;20049;-77
2021/12/09 06:52:17;;;;;;;5.72;3.83;;;5.20;99.90;;;;;;6093629;23;19998;-77
2021/12/09 06:54:43;;;;;;;7.18;3.65;;;5.20;99.90;;;;;;6094407;23;20438;-76
2021/12/09 06:57:09;;;;;;;4.15;3.50;;;5.20;99.90;;;;;;6094810;23;20007;-76
2021/12/09 06:59:34;;;;;;;5.22;3.60;;;5.20;99.90;;;;;;6094245;23;20334;-78
2021/12/09 07:02:01;;;;;;;4.25;3.85;;;5.30;99.90;;;;;;6095149;23;20477;-78
2021/12/09 07:04:27;;;;;;;7.10;3.65;;;5.20;99.90;;;;;;6095033;23;20018;-79
2021/12/09 07:06:52;;;;;;;4.35;3.45;;;5.20;99.90;;;;;;6095060;23;20089;-76
2021/12/09 07:09:18;;;;;;;5.63;3.88;;;5.30;99.90;;;;;;6095107;23;20007;-77
2021/12/09 07:11:50;;;;;;;4.32;3.63;;;5.30;99.90;;;;;;6095348;23;20069;-78
2021/12/09 07:14:17;;;;;;;4.05;3.38;;;5.40;99.90;;;;;;6094745;23;20017;-77
2021/12/09 07:16:42;;;;;;;4.45;3.58;;;5.40;99.90;;;;;;6095317;23;20003;-77
2021/12/09 07:19:08;;;;;;;3.90;3.58;;;5.40;99.90;;;;;;6094722;23;20510;-76
2021/12/09 07:21:34;;;;;;;3.78;3.40;;;5.40;99.90;;;;;;6094758;23;20010;-76
2021/12/09 07:24:00;;;;;;;4.32;3.90;;;5.40;99.90;;;;;;6094990;23;20014;-77
2021/12/09 07:26:26;;;;;;;3.67;3.33;;;5.40;99.90;;;;;;6095191;23;20007;-79
2021/12/09 07:28:52;;;;;;;3.65;3.22;;;5.40;99.90;;;;;;6094858;23;20006;-78
2021/12/09 07:31:17;;;;;;;3.83;3.53;;;5.40;99.90;;;;;;6069229;23;20003;-78
2021/12/09 07:33:43;;;;;;;4.32;3.92;;;5.50;99.90;;;;;;6094697;23;20002;-78
2021/12/09 07:36:09;;;;;;;4.20;3.83;;;5.50;99.90;;;;;;6094884;23;20013;-79
2021/12/09 07:38:35;;;;;;;4.40;3.95;;;5.60;99.90;;;;;;6095015;23;19999;-79
2021/12/09 07:41:01;;;;;;;7.57;4.65;;;5.60;99.90;;;;;;6094750;23;20007;-78
2021/12/09 07:43:26;;;;;;;4.18;3.67;;;5.60;99.90;;;;;;6068853;23;20621;-78
2021/12/09 07:45:52;;;;;;;4.80;3.90;;;5.60;99.90;;;;;;6068904;23;20335;-78
2021/12/09 07:48:18;;;;;;;5.20;4.10;;;5.60;99.90;;;;;;6094259;23;20006;-76
2021/12/09 07:50:43;;;;;;;6.10;4.13;;;5.60;99.90;;;;;;6094656;23;20006;-77
2021/12/09 07:53:09;;;;;;;4.32;3.90;;;5.60;99.90;;;;;;6069455;23;20002;-78
2021/12/09 07:55:35;;;;;;;4.97;4.30;;;5.60;99.90;;;;;;6094970;23;20007;-78
2021/12/09 07:58:01;;;;;;;5.15;4.15;;;5.60;99.90;;;;;;6094749;23;20461;-80
2021/12/09 08:00:30;;;;;;;6.97;4.07;;;5.60;99.90;;;;;;6094608;23;20034;-79
2021/12/09 08:02:57;;;;;;;4.57;4.10;;;5.60;99.90;;;;;;6094560;23;20006;-78
2021/12/09 08:05:25;;;;;;;4.32;3.67;;;5.60;99.90;;;;;;6068765;23;20828;-79
2021/12/09 08:07:51;;;;;;;4.68;3.55;;;5.50;99.90;;;;;;6094727;23;20025;-76
2021/12/09 08:10:18;;;;;;;4.30;3.90;;;5.60;99.90;;;;;;6094496;23;20438;-78
2021/12/09 08:12:44;;;;;;;5.85;4.43;;;5.50;99.90;;;;;;6095086;23;20002;-78
2021/12/09 08:15:11;;;;;;;4.88;3.80;;;5.50;99.90;;;;;;6094836;23;20050;-78
2021/12/09 08:20:05;;;;;;;7.57;4.55;;;5.50;99.90;;;;;;6097099;23;20442;-79
2021/12/09 08:22:32;;;;;;;5.82;3.92;;;5.50;99.90;;;;;;6094868;23;20002;-78
2021/12/09 08:24:59;;;;;;;5.07;4.30;;;5.40;99.90;;;;;;6094794;23;20041;-79
2021/12/09 08:27:26;;;;;;;4.97;4.13;;;5.40;99.90;;;;;;6094906;23;20009;-78
2021/12/09 08:29:51;;;;;;;4.80;3.88;;;5.40;99.90;;;;;;6068606;23;20010;-78
2021/12/09 08:32:17;;;;;;;4.72;4.15;;;5.40;99.90;;;;;;6094309;23;20574;-78
2021/12/09 08:34:43;;;;;;;5.35;4.72;;;5.30;99.90;;;;;;6094294;23;20006;-77
2021/12/09 08:37:09;;;;;;;7.65;4.70;;;5.30;99.90;;;;;;6093999;23;20062;-78
2021/12/09 08:39:35;;;;;;;5.95;5.15;;;5.30;99.90;;;;;;6094264;23;19999;-78
2021/12/09 08:42:02;;;;;;;5.25;4.30;;;5.20;99.90;;;;;;6094086;23;20483;-78
2021/12/09 08:44:28;;;;;;;5.05;4.53;;;5.20;99.90;;;;;;6094490;23;20093;-78
2021/12/09 08:46:53;;;;;;;6.20;4.75;;;5.20;99.90;;;;;;6094913;23;20049;-78
2021/12/09 08:49:20;;;;;;;4.97;4.15;;;5.20;99.90;;;;;;6094695;23;20422;-79
2021/12/09 08:51:45;;;;;;;5.13;4.32;;;5.20;99.90;;;;;;6069326;23;20003;-79
2021/12/09 08:54:12;;;;;;;6.38;4.63;;;5.20;99.90;;;;;;6094754;23;20003;-79
2021/12/09 08:56:38;;;;;;;6.75;4.55;;;5.20;99.90;;;;;;6069612;23;20022;-78
2021/12/09 08:59:05;;;;;;;6.18;4.28;;;5.10;99.90;;;;;;6094473;23;20014;-79
2021/12/09 09:01:33;;;;;;;5.65;4.15;;;5.20;99.90;;;;;;6069428;23;20350;-79
2021/12/09 09:03:59;;;;;;;5.65;4.53;;;5.20;99.90;;;;;;6094113;23;20109;-78
2021/12/09 09:06:25;;;;;;;6.60;4.97;;;5.30;99.90;;;;;;6094436;23;20031;-78
2021/12/09 09:08:56;;;;;;;5.28;4.68;;;5.30;99.90;;;;;;6069036;23;20010;-78
2021/12/09 09:11:23;;;;;;;5.55;4.43;;;5.30;99.90;;;;;;6094257;23;20326;-77
2021/12/09 09:13:48;;;;;;;5.07;4.30;;;5.30;99.90;;;;;;6094514;23;20030;-78
2021/12/09 09:16:15;;;;;;;7.57;4.50;;;5.20;99.90;;;;;;6095411;23;20465;-78
2021/12/09 09:18:41;;;;;;;4.68;4.20;;;5.20;99.90;;;;;;6096421;23;20003;-78
2021/12/09 09:21:07;;;;;;;4.65;4.25;;;5.20;99.90;;;;;;6096410;23;20014;-79
2021/12/09 09:23:33;;;;;;;4.95;4.45;;;5.10;99.90;;;;;;6070781;23;20381;-78
2021/12/09 09:25:59;;;;;;;6.25;4.80;;;5.10;99.90;;;;;;6070619;23;20018;-79
2021/12/09 09:28:25;;;;;;;5.85;4.55;;;5.00;99.90;;;;;;6096445;23;20002;-79
2021/12/09 09:30:57;;;;;;;4.78;4.00;;;5.00;99.90;;;;;;6070445;23;20010;-79
2021/12/09 09:33:25;;;;;;;4.90;4.40;;;5.10;99.90;;;;;;6096570;23;19999;-78
2021/12/09 09:35:52;;;;;;;5.18;4.60;;;5.00;99.90;;;;;;6096394;23;19998;-79
2021/12/09 09:38:19;;;;;;;4.55;3.75;;;5.10;99.90;;;;;;6070677;23;20308;-79
2021/12/09 09:41:08;;;;;;;6.70;4.07;;;5.20;99.90;;;;;;6096364;23;20007;-78
2021/12/09 09:46:11;;;;;;;4.53;3.97;;;5.50;99.90;;;;;;6070751;23;20014;-78
2021/12/09 09:48:37;;;;;;;5.78;3.38;;;5.60;99.90;;;;;;6096122;23;20006;-78
2021/12/09 09:51:05;;;;;;;3.65;3.35;;;5.60;99.90;;;;;;6096142;23;20395;-77
2021/12/09 09:53:31;;;;;;;3.92;3.15;;;5.70;99.90;;;;;;6070266;23;20438;-78
2021/12/09 09:55:57;;;;;;;4.35;2.83;;;5.70;99.90;;;;;;6096116;23;20085;-78
2021/12/09 09:58:25;;;;;;;3.20;2.90;;;5.70;99.90;;;;;;6070794;23;20071;-77
2021/12/09 10:00:51;;;;;;;3.90;3.40;;;5.70;99.90;;;;;;6095841;23;20006;-77
2021/12/09 10:03:17;;;;;;;4.05;3.60;;;5.70;99.90;;;;;;6070250;23;20442;-77
2021/12/09 10:05:48;;;;;;;5.32;3.72;;;5.70;99.90;;;;;;6070488;23;20617;-78
2021/12/09 10:08:16;;;;;;;4.40;4.00;;;5.70;99.90;;;;;;6081264;23;20002;-75
2021/12/09 10:10:44;;;;;;;8.77;4.20;;;5.70;99.90;;;;;;6068528;23;20010;-76
2021/12/09 10:13:13;;;;;;;4.30;3.85;;;5.70;99.90;;;;;;6069965;23;20350;-78
2021/12/09 10:15:51;;;;;;;4.68;4.18;;;5.70;99.90;;;;;;6095418;23;20003;-78
2021/12/09 10:18:37;;;;;;;3.90;3.50;;;5.70;99.90;;;;;;6093540;23;20092;-77
2021/12/09 10:21:07;;;;;;;3.97;3.47;;;5.80;99.90;;;;;;6093444;23;20002;-76
2021/12/09 10:23:34;;;;;;;3.83;3.53;;;5.80;99.90;;;;;;6093409;23;20062;-77
2021/12/09 10:26:31;;;;;;;4.45;3.70;;;5.80;99.90;;;;;;6067740;23;20377;-77
2021/12/09 10:29:21;;;;;;;4.35;3.30;;;5.70;99.90;;;;;;6067201;23;20412;-78
2021/12/09 10:31:59;;;;;;;5.53;3.05;;;5.60;99.90;;;;;;6068933;23;20339;-78
2021/12/09 10:34:36;;;;;;;3.53;3.13;;;5.60;99.90;;;;;;6069890;23;20724;-77
2021/12/09 10:37:09;;;;;;;3.97;3.25;;;5.60;99.90;;;;;;6095179;23;20003;-77
2021/12/09 10:39:43;;;;;;;3.88;3.40;;;5.70;99.90;;;;;;6095151;23;20034;-78
2021/12/09 10:42:15;;;;;;;3.30;3.00;;;5.60;99.90;;;;;;6095129;23;19998;-78
2021/12/09 10:44:46;;;;;;;3.55;2.92;;;5.60;99.90;;;;;;6094458;23;20010;-77
2021/12/09 10:47:36;;;;;;;4.28;3.35;;;5.60;99.90;;;;;;6094996;23;19998;-77
2021/12/09 10:50:12;;;;;;;3.42;3.13;;;5.60;99.90;;;;;;6094854;23;20065;-78
2021/12/09 10:52:47;;;;;;;3.25;2.97;;;5.50;99.90;;;;;;6094608;23;20010;-77
2021/12/09 10:55:15;;;;;;;5.78;5.28;;;5.50;99.90;;;;;;6068987;23;20006;-77
2021/12/09 10:57:41;;;;;;;6.35;4.38;;;5.50;99.90;;;;;;6095348;23;20422;-77
2021/12/09 11:00:14;;;;;;;4.30;3.90;;;5.50;99.90;;;;;;6069378;23;20006;-77
2021/12/09 11:03:05;;;;;;;3.90;3.50;;;5.50;99.90;;;;;;6068707;23;20382;-77
2021/12/09 11:05:33;;;;;;;3.47;3.17;;;5.50;99.90;;;;;;6093219;23;20450;-76
2021/12/09 11:08:21;;;;;;;4.40;3.70;;;5.60;99.90;;;;;;6095051;23;20448;-77
2021/12/09 11:10:49;;;;;;;5.43;3.53;;;5.50;99.90;;;;;;6094748;23;20033;-77
2021/12/09 11:13:18;;;;;;;3.40;3.10;;;5.50;99.90;;;;;;6069444;23;20061;-77
2021/12/09 11:15:57;;;;;;;4.32;3.25;;;5.50;99.90;;;;;;6094907;23;20339;-77
2021/12/09 11:18:35;;;;;;;3.35;3.03;;;5.50;99.90;;;;;;6068814;23;20017;-81
2021/12/09 11:21:09;;;;;;;3.50;2.97;;;5.50;99.90;;;;;;6095123;23;20375;-80
2021/12/09 11:23:45;;;;;;;3.70;3.40;;;5.50;99.90;;;;;;6068888;23;20094;-80
2021/12/09 11:26:24;;;;;;;4.45;3.60;;;5.50;99.90;;;;;;6095201;23;20010;-80
2021/12/09 11:29:17;;;;;;;3.60;3.30;;;5.60;99.90;;;;;;6069657;23;20002;-78
2021/12/09 11:31:48;;;;;;;;;;;5.70;99.90;;;;;;6089845;23;20105;-78
2021/12/09 11:34:17;;;;;;;6.32;3.45;;;5.70;99.90;;;;;;6069200;23;19986;-79
2021/12/09 11:36:48;;;;;;;3.17;2.88;;;5.80;99.90;;;;;;6069865;23;20097;-76
2021/12/09 11:39:21;;;;;;;3.67;3.30;;;5.80;99.90;;;;;;6069028;23;20093;-78
2021/12/09 11:41:47;;;;;;;;;;;5.80;99.90;;;;;;6072741;23;20016;-76
2021/12/09 11:44:14;;;;;;;3.90;3.28;;;5.80;99.90;;;;;;6101790;23;19920;-80
2021/12/09 11:46:41;;;;;;;4.80;3.83;;;5.90;99.90;;;;;;6097886;23;20315;-76
2021/12/09 11:49:09;;;;;;;5.65;3.72;;;5.90;99.90;;;;;;6094692;23;20558;-76
2021/12/09 11:51:35;;;;;;;3.83;3.50;;;5.90;99.90;;;;;;6094634;23;20006;-78
2021/12/09 11:54:04;;;;;;;3.55;3.25;;;6.00;99.90;;;;;;6094666;23;20102;-77
2021/12/09 12:11:30;;;;;;;5.53;4.18;;;6.30;99.90;;;;;;6067805;23;20455;-76
2021/12/09 12:14:03;;;;;;;9.07;4.35;;;6.30;99.90;;;;;;6052913;23;20017;-77
2021/12/09 12:17:44;;;;;;;8.45;4.93;;;6.40;99.90;;;;;;6094520;23;19998;-77
2021/12/09 12:34:54;;;;;;;3.53;3.22;;;6.50;99.90;;;;;;6094006;23;20469;-76
2021/12/09 12:40:39;;;;;;;3.97;3.30;;;6.30;99.90;;;;;;6068266;23;20029;-77
2021/12/09 12:43:16;;;;;;;4.35;3.65;;;6.30;99.90;;;;;;6093628;23;20010;-77
2021/12/09 12:51:20;;;;;;;3.53;3.22;;;6.50;99.90;;;;;;6100322;23;20017;-78
2021/12/09 12:53:54;;;;;;;3.97;3.58;;;6.40;99.90;;;;;;6094423;23;20054;-80
2021/12/09 12:56:26;;;;;;;4.47;3.55;;;6.30;99.90;;;;;;6094521;23;20061;-78
2021/12/09 12:59:18;;;;;;;3.58;3.28;;;6.30;99.90;;;;;;6094564;23;20006;-77
2021/12/09 13:02:26;;;;;;;4.40;3.83;;;6.20;99.90;;;;;;6079182;23;20010;-78
2021/12/09 13:07:34;;;;;;;3.95;3.65;;;6.20;99.90;;;;;;6094656;23;20447;-79
2021/12/09 13:10:31;;;;;;;4.25;3.60;;;6.30;99.90;;;;;;6067383;23;20016;-78
2021/12/09 13:13:11;;;;;;;4.13;3.72;;;6.30;99.90;;;;;;6093756;23;20028;-77
2021/12/09 13:15:50;;;;;;;4.80;3.67;;;6.40;99.90;;;;;;6094000;23;20485;-77
2021/12/09 13:18:42;;;;;;;4.72;4.18;;;6.40;99.90;;;;;;6094185;23;20002;-77
2021/12/09 13:21:39;;;;;;;5.63;4.13;;;6.40;99.90;;;;;;6094032;23;20002;-78
2021/12/09 13:24:50;;;;;;;5.05;3.85;;;6.40;99.90;;;;;;6093922;23;20525;-78
2021/12/09 13:46:36;;;;;;;4.93;3.50;;;6.50;99.90;;;;;;6092823;23;20064;-78
2021/12/09 13:49:10;;;;;;;4.45;3.88;;;6.50;99.90;;;;;;6091991;23;20009;-79
2021/12/09 13:54:28;;;;;;;4.30;3.60;;;6.60;99.90;;;;;;6093072;23;20093;-78
2021/12/09 13:57:06;;;;;;;3.90;3.50;;;6.70;99.90;;;;;;6067209;23;20014;-79
2021/12/09 13:59:36;;;;;;;5.30;4.00;;;6.80;99.90;;;;;;6067054;23;20069;-78
2021/12/09 14:02:16;;;;;;;3.55;3.25;;;6.90;99.90;;;;;;6092457;23;20434;-77
2021/12/09 14:04:42;;;;;;;3.28;2.97;;;7.00;99.90;;;;;;6094128;23;20022;-78
2021/12/09 14:07:13;;;;;;;5.45;3.25;;;7.10;99.90;;;;;;6093762;23;20001;-79
2021/12/09 14:09:42;;;;;;;5.28;3.45;;;7.10;99.90;;;;;;6067890;23;20433;-78
2021/12/09 14:12:08;;;;;;;3.13;2.72;;;7.00;99.90;;;;;;6068219;23;20398;-79
2021/12/09 14:14:50;;;;;;;3.50;3.13;;;6.90;99.90;;;;;;6094200;23;20065;-77
2021/12/09 14:17:21;;;;;;;6.37;3.50;;;7.00;99.90;;;;;;6094534;23;20085;-78
2021/12/09 14:20:01;;;;;;;5.88;2.83;;;7.00;99.90;;;;;;6091147;23;20230;-78
2021/12/09 14:22:35;;;;;;;7.40;3.35;;;7.10;99.90;;;;;;6090615;23;20050;-78